Terminal Aerodrome Forecast
Issued by NWS Houston/Galveston, TX

Home | Current Version | Previous Version | Text Only | Print | Product List | Glossary On
Versions: 1 2 3 4 5 6 7 8 9 10 11 12 13 14 15 16 17 18 19 20 21 22 23 24 25 26 27 28 29 30 31 32 33 34 35 36 37 38 39 40 41 42 43 44 45 46 47
000
FTUS44 KHGX 012320
TAFGLS
TAF
KGLS 012320Z 0200/0224 15006KT 1/2SM FG OVC002
     FM020300 02006KT 1/4SM FG OVC002
     FM021900 02008KT 4SM BR SCT002 OVC007=

USA.gov is the U.S. government's official web portal to all federal, state and local government web resources and services.